Time;durP1;ratioP1;P1;durP2;ratioP2;P2;SDS_P1;SDS_P2;PMS_P1;PMS_P2;Temp;Humidity;BMP_temperature;BMP_pressure;BME280_temperature;BME280_humidity;BME280_pressure;Samples;Min_cycle;Max_cycle;Signal;HPM_P1;HPM_P2
2023/06/04 00:01:20;;;;;;;2.97;1.63;;;15.40;54.90;;;;;;5033003;28;20107;-58
2023/06/04 00:03:45;;;;;;;3.03;1.58;;;15.40;54.90;;;;;;5033633;28;20035;-57
2023/06/04 00:06:11;;;;;;;2.90;1.70;;;15.30;55.20;;;;;;5033720;28;20104;-59
2023/06/04 00:08:37;;;;;;;1.63;1.50;;;15.30;55.30;;;;;;5033113;28;20029;-59
2023/06/04 00:11:02;;;;;;;3.80;1.70;;;15.30;55.70;;;;;;5033364;28;20389;-60
2023/06/04 00:13:28;;;;;;;3.17;1.60;;;15.30;55.90;;;;;;5033006;28;20436;-59
2023/06/04 00:15:54;;;;;;;3.55;1.63;;;15.30;55.90;;;;;;5033197;28;20132;-60
2023/06/04 00:18:19;;;;;;;1.95;1.27;;;15.30;55.30;;;;;;5033141;28;20038;-60
2023/06/04 00:20:45;;;;;;;1.90;1.63;;;15.30;55.00;;;;;;5032901;28;20079;-60
2023/06/04 00:23:11;;;;;;;1.83;1.65;;;15.30;55.20;;;;;;5032434;28;20040;-58
2023/06/04 00:25:36;;;;;;;2.65;1.67;;;15.30;55.10;;;;;;5032743;28;20029;-58
2023/06/04 00:28:02;;;;;;;3.00;1.73;;;15.20;55.10;;;;;;5032878;28;20049;-59
2023/06/04 00:30:28;;;;;;;1.77;1.65;;;15.20;55.70;;;;;;5032948;28;20029;-59
2023/06/04 00:32:53;;;;;;;2.17;1.48;;;15.20;55.60;;;;;;5033009;28;20522;-58
2023/06/04 00:35:20;;;;;;;1.65;1.48;;;15.20;55.30;;;;;;5032654;28;20163;-59
2023/06/04 00:37:46;;;;;;;1.88;1.70;;;15.20;55.30;;;;;;5031159;28;20029;-60
2023/06/04 00:40:12;;;;;;;2.22;1.63;;;15.20;55.50;;;;;;5032696;28;20029;-58
2023/06/04 00:42:37;;;;;;;1.98;1.52;;;15.20;55.80;;;;;;5032724;28;20468;-60
2023/06/04 00:45:07;;;;;;;2.63;1.52;;;15.10;55.80;;;;;;5033072;28;20017;-59
2023/06/04 00:47:33;;;;;;;19.17;2.40;;;15.10;55.60;;;;;;5032606;28;20037;-57
2023/06/04 00:49:59;;;;;;;1.95;1.42;;;15.10;55.30;;;;;;5032251;28;20040;-59
2023/06/04 00:52:26;;;;;;;1.38;1.20;;;15.10;55.60;;;;;;5032287;28;20100;-56
2023/06/04 00:54:52;;;;;;;1.77;1.55;;;15.10;55.70;;;;;;5032480;28;20036;-60
2023/06/04 00:57:17;;;;;;;1.83;1.50;;;15.10;55.70;;;;;;5032270;28;20080;-58
2023/06/04 00:59:43;;;;;;;1.70;1.60;;;15.10;56.10;;;;;;5032021;28;20073;-60
2023/06/04 01:02:19;;;;;;;1.50;1.40;;;15.10;56.20;;;;;;5032147;28;20389;-56
2023/06/04 01:05:10;;;;;;;3.05;1.70;;;15.00;56.10;;;;;;5032448;28;20405;-58
2023/06/04 01:07:36;;;;;;;1.52;1.42;;;15.10;56.40;;;;;;5032265;28;20111;-59
2023/06/04 01:10:02;;;;;;;2.70;1.95;;;15.00;56.70;;;;;;5031907;28;20036;-60
2023/06/04 01:12:28;;;;;;;1.85;1.70;;;15.00;56.80;;;;;;5031788;28;20025;-59
2023/06/04 01:14:54;;;;;;;2.55;1.50;;;15.00;56.70;;;;;;5032069;28;20079;-60
2023/06/04 01:17:36;;;;;;;1.80;1.70;;;15.00;56.80;;;;;;5031973;28;20030;-60
2023/06/04 01:20:24;;;;;;;4.05;1.80;;;15.00;57.20;;;;;;5031712;28;20512;-60
2023/06/04 01:23:02;;;;;;;1.88;1.35;;;15.00;56.80;;;;;;5031854;28;20481;-60
2023/06/04 01:25:41;;;;;;;3.13;1.35;;;15.00;57.00;;;;;;5031692;28;20025;-60
2023/06/04 01:28:08;;;;;;;4.65;1.60;;;15.00;56.90;;;;;;5031636;28;20148;-60
2023/06/04 01:30:42;;;;;;;2.30;1.65;;;15.00;57.00;;;;;;5031156;28;20021;-59
2023/06/04 01:33:10;;;;;;;3.20;1.70;;;15.00;57.00;;;;;;5031660;28;20086;-55
2023/06/04 01:35:36;;;;;;;2.65;1.73;;;15.00;57.20;;;;;;5031954;28;20051;-57
2023/06/04 01:38:02;;;;;;;3.03;1.77;;;15.00;57.70;;;;;;5031487;28;20503;-60
2023/06/04 01:40:28;;;;;;;2.72;2.05;;;15.00;57.80;;;;;;5031462;28;20033;-59
2023/06/04 01:42:54;;;;;;;3.20;1.70;;;15.00;57.80;;;;;;5031538;28;20091;-59
2023/06/04 01:45:25;;;;;;;1.40;1.30;;;15.00;58.00;;;;;;5031655;28;20060;-60
2023/06/04 01:47:51;;;;;;;5.10;1.73;;;15.00;57.60;;;;;;5030153;28;20536;-60
2023/06/04 01:50:18;;;;;;;2.17;1.75;;;15.00;57.30;;;;;;5031426;28;20117;-58
2023/06/04 01:52:43;;;;;;;2.42;1.90;;;15.00;57.20;;;;;;5031297;28;20029;-60
2023/06/04 01:55:14;;;;;;;2.03;1.80;;;15.00;57.60;;;;;;5031589;28;20045;-56
2023/06/04 01:57:41;;;;;;;1.97;1.77;;;15.10;57.80;;;;;;5031740;28;20378;-58
2023/06/04 02:00:10;;;;;;;3.00;1.60;;;15.00;57.90;;;;;;5031207;28;20049;-60
2023/06/04 02:02:36;;;;;;;5.70;2.00;;;15.10;57.70;;;;;;5031582;28;20101;-60
2023/06/04 02:05:09;;;;;;;2.25;1.70;;;15.10;57.20;;;;;;5031432;28;20540;-59
2023/06/04 02:07:35;;;;;;;2.13;1.70;;;15.10;57.20;;;;;;5031581;28;20056;-58
2023/06/04 02:10:00;;;;;;;1.98;1.80;;;15.10;57.10;;;;;;5031308;28;20071;-59
2023/06/04 02:12:26;;;;;;;2.88;1.75;;;15.10;57.10;;;;;;5031205;28;20021;-59
2023/06/04 02:14:52;;;;;;;2.60;1.90;;;15.10;57.40;;;;;;5031098;28;20477;-59
2023/06/04 02:17:17;;;;;;;1.83;1.70;;;15.10;57.70;;;;;;5031034;28;20065;-59
2023/06/04 02:19:44;;;;;;;1.85;1.75;;;15.10;57.80;;;;;;5030973;28;20040;-60
2023/06/04 02:22:14;;;;;;;1.60;1.35;;;15.20;57.80;;;;;;5031240;28;20353;-58
2023/06/04 02:24:42;;;;;;;1.70;1.60;;;15.20;57.70;;;;;;5031200;28;20026;-57
2023/06/04 02:27:08;;;;;;;2.08;1.63;;;15.20;57.80;;;;;;5031268;28;20055;-60
2023/06/04 02:29:35;;;;;;;2.10;1.60;;;15.20;57.80;;;;;;5030863;28;20052;-57
2023/06/04 02:32:01;;;;;;;2.72;2.00;;;15.20;57.50;;;;;;5031284;28;20113;-60
2023/06/04 02:34:27;;;;;;;3.75;1.63;;;15.30;57.60;;;;;;5031140;28;20111;-60
2023/06/04 02:36:53;;;;;;;3.80;1.80;;;15.30;57.60;;;;;;5030828;28;20090;-60
2023/06/04 02:39:19;;;;;;;4.50;2.08;;;15.40;57.70;;;;;;5030830;28;20044;-59
2023/06/04 02:41:45;;;;;;;1.98;1.80;;;15.40;57.70;;;;;;5031077;28;20030;-59
2023/06/04 02:44:12;;;;;;;2.97;1.90;;;15.40;57.60;;;;;;5034355;28;20469;-59
2023/06/04 02:46:38;;;;;;;2.67;2.00;;;15.40;57.50;;;;;;5034644;28;20071;-59
2023/06/04 02:49:04;;;;;;;4.15;1.92;;;15.40;57.60;;;;;;5034754;28;20026;-59
2023/06/04 02:51:29;;;;;;;3.03;2.10;;;15.50;57.60;;;;;;5035064;28;20102;-57
2023/06/04 02:53:55;;;;;;;3.50;1.65;;;15.50;57.70;;;;;;5035166;28;20033;-59
2023/06/04 02:56:21;;;;;;;3.53;1.90;;;15.50;57.80;;;;;;5034478;28;20030;-59
2023/06/04 02:58:55;;;;;;;2.78;2.17;;;15.50;57.70;;;;;;5034676;28;20033;-55
2023/06/04 03:01:25;;;;;;;3.03;2.38;;;15.60;57.40;;;;;;5034138;28;20443;-58
2023/06/04 03:03:52;;;;;;;3.83;1.90;;;15.60;57.60;;;;;;5034356;28;20033;-59
2023/06/04 03:06:22;;;;;;;2.00;1.80;;;15.60;57.30;;;;;;5034312;28;20025;-59
2023/06/04 03:08:50;;;;;;;3.85;2.13;;;15.70;57.50;;;;;;5034515;28;20029;-56
2023/06/04 03:11:16;;;;;;;2.75;1.95;;;15.70;57.60;;;;;;5034426;28;20030;-59
2023/06/04 03:13:42;;;;;;;2.85;2.05;;;15.70;57.90;;;;;;5034193;28;20373;-58
2023/06/04 03:16:09;;;;;;;2.65;2.10;;;15.80;57.90;;;;;;5034148;28;20041;-59
2023/06/04 03:18:44;;;;;;;2.55;1.90;;;15.80;58.10;;;;;;5034259;28;20034;-59
2023/06/04 03:21:13;;;;;;;2.60;1.90;;;15.90;58.10;;;;;;5033234;28;20492;-60
2023/06/04 03:23:40;;;;;;;3.65;2.20;;;16.00;58.30;;;;;;5033946;28;20036;-59
2023/06/04 03:26:06;;;;;;;3.47;1.83;;;16.00;58.50;;;;;;5034150;28;20436;-59
2023/06/04 03:28:33;;;;;;;3.88;2.10;;;16.10;58.80;;;;;;5033886;28;20064;-59
2023/06/04 03:30:59;;;;;;;4.13;2.10;;;16.40;59.40;;;;;;5033858;28;20539;-59
2023/06/04 03:33:24;;;;;;;2.78;1.88;;;16.70;59.60;;;;;;5033853;28;20030;-58
2023/06/04 03:35:52;;;;;;;2.33;1.85;;;17.20;59.40;;;;;;5033851;28;20080;-58
2023/06/04 03:38:18;;;;;;;5.13;2.15;;;17.60;58.30;;;;;;5034077;28;20412;-59
2023/06/04 03:40:44;;;;;;;2.05;1.80;;;18.20;57.40;;;;;;5033916;28;20030;-59
2023/06/04 03:43:10;;;;;;;2.20;1.67;;;18.80;56.60;;;;;;5033642;28;20370;-58
2023/06/04 03:45:36;;;;;;;2.03;1.70;;;19.70;55.60;;;;;;5033769;28;20068;-58
2023/06/04 03:48:02;;;;;;;2.55;2.08;;;20.60;54.40;;;;;;5033512;28;20037;-59
2023/06/04 03:50:27;;;;;;;2.15;1.70;;;21.60;53.10;;;;;;5033409;28;20026;-58
2023/06/04 03:52:53;;;;;;;3.28;1.83;;;22.60;51.60;;;;;;5033209;28;20033;-60
2023/06/04 03:55:19;;;;;;;2.13;1.55;;;23.50;50.00;;;;;;5033283;28;20480;-59
2023/06/04 03:57:45;;;;;;;2.70;1.40;;;24.30;48.40;;;;;;5033345;28;20038;-57
2023/06/04 04:00:12;;;;;;;1.98;1.50;;;25.10;47.30;;;;;;5033156;28;20053;-60
2023/06/04 04:02:42;;;;;;;2.58;1.50;;;25.80;46.30;;;;;;5033512;28;20029;-58
2023/06/04 04:05:07;;;;;;;1.70;1.27;;;26.50;45.50;;;;;;5033315;28;20021;-58
2023/06/04 04:07:33;;;;;;;3.15;1.48;;;27.20;44.50;;;;;;5033498;28;20021;-60
2023/06/04 04:09:59;;;;;;;1.40;1.30;;;27.90;43.60;;;;;;5033331;28;20033;-57
2023/06/04 04:12:24;;;;;;;1.33;1.23;;;28.60;42.70;;;;;;5033549;28;20396;-59
2023/06/04 04:14:50;;;;;;;2.92;1.33;;;29.20;42.10;;;;;;5033164;28;20041;-59
2023/06/04 04:17:16;;;;;;;2.30;1.80;;;29.80;41.20;;;;;;5033350;28;20037;-60
2023/06/04 04:19:42;;;;;;;2.70;1.55;;;30.40;40.60;;;;;;5032959;28;20104;-59
2023/06/04 04:22:08;;;;;;;1.65;1.42;;;30.90;39.70;;;;;;5033012;28;20506;-60
2023/06/04 04:24:39;;;;;;;1.05;0.85;;;31.30;39.10;;;;;;5033130;28;20044;-59
2023/06/04 04:27:05;;;;;;;2.70;1.17;;;31.80;38.80;;;;;;5033010;28;20105;-59
2023/06/04 04:29:34;;;;;;;1.95;1.58;;;32.20;38.20;;;;;;5033044;28;20507;-59
2023/06/04 04:32:10;;;;;;;1.85;1.13;;;32.40;37.70;;;;;;5032997;28;20866;-60
2023/06/04 04:34:37;;;;;;;2.97;1.23;;;32.70;37.60;;;;;;5032865;28;20030;-58
2023/06/04 04:37:03;;;;;;;1.52;1.30;;;32.90;37.00;;;;;;5032898;28;20108;-55
2023/06/04 04:39:29;;;;;;;2.05;1.33;;;33.10;36.60;;;;;;5032866;28;20033;-58
2023/06/04 04:41:55;;;;;;;2.15;1.20;;;33.40;36.20;;;;;;5032400;28;20362;-56
2023/06/04 04:44:21;;;;;;;1.60;1.00;;;33.60;35.60;;;;;;5032740;28;20051;-57
2023/06/04 04:46:48;;;;;;;1.25;1.17;;;33.70;35.30;;;;;;5032436;28;20036;-57
2023/06/04 04:49:13;;;;;;;2.33;0.98;;;33.80;34.90;;;;;;5032634;28;20053;-60
2023/06/04 04:51:39;;;;;;;2.15;1.17;;;33.80;34.70;;;;;;5032559;28;20160;-60
2023/06/04 04:54:05;;;;;;;2.15;1.05;;;33.80;34.50;;;;;;5032371;28;20553;-58
2023/06/04 04:56:33;;;;;;;1.50;1.05;;;33.90;34.50;;;;;;5032626;28;20030;-59
2023/06/04 04:58:59;;;;;;;1.48;1.02;;;34.00;34.20;;;;;;5032257;28;20029;-60
2023/06/04 05:01:25;;;;;;;2.75;1.38;;;34.10;34.10;;;;;;5031932;28;20094;-59
2023/06/04 05:03:51;;;;;;;1.98;0.82;;;34.20;33.70;;;;;;5032393;28;20116;-60
2023/06/04 05:06:16;;;;;;;2.15;1.08;;;34.30;33.20;;;;;;5031468;28;20101;-60
2023/06/04 05:08:42;;;;;;;2.45;1.08;;;34.40;33.20;;;;;;5032347;28;20021;-61
2023/06/04 05:11:08;;;;;;;1.92;1.00;;;34.40;32.80;;;;;;5032109;28;20029;-60
2023/06/04 05:13:34;;;;;;;1.50;0.95;;;34.40;32.80;;;;;;5032126;28;20061;-57
2023/06/04 05:16:06;;;;;;;0.63;0.63;;;34.40;32.60;;;;;;5032560;28;20029;-60
2023/06/04 05:18:40;;;;;;;6.93;1.10;;;34.40;32.40;;;;;;5032081;28;20523;-60
2023/06/04 05:21:06;;;;;;;2.83;0.85;;;34.20;31.70;;;;;;5031915;28;20144;-56
2023/06/04 05:23:36;;;;;;;0.65;0.65;;;33.80;31.90;;;;;;5031666;28;20030;-59
2023/06/04 05:26:03;;;;;;;1.45;0.90;;;33.10;32.20;;;;;;5032022;28;20026;-59
2023/06/04 05:28:29;;;;;;;1.38;0.82;;;32.20;32.60;;;;;;5031847;28;20524;-59
2023/06/04 05:30:59;;;;;;;1.35;0.88;;;31.20;32.80;;;;;;5031816;28;20029;-60
2023/06/04 05:33:25;;;;;;;;;;;30.30;33.30;;;;;;5032468;28;20033;-59
2023/06/04 05:35:51;;;;;;;1.63;1.02;;;29.20;33.80;;;;;;5031748;28;19905;-60
2023/06/04 05:38:20;;;;;;;1.75;0.90;;;28.40;34.40;;;;;;5031850;28;20040;-59
2023/06/04 05:40:47;;;;;;;0.95;0.88;;;27.50;35.00;;;;;;5031469;28;20497;-60
2023/06/04 05:43:13;;;;;;;1.00;1.00;;;26.70;35.60;;;;;;5031321;28;20072;-59
2023/06/04 05:45:38;;;;;;;2.13;1.40;;;26.10;36.30;;;;;;5031336;28;20037;-59
2023/06/04 05:48:05;;;;;;;1.75;1.27;;;25.60;36.50;;;;;;5031335;28;20465;-59
2023/06/04 05:50:31;;;;;;;2.92;1.40;;;25.10;36.90;;;;;;5031330;28;20485;-57
2023/06/04 05:52:56;;;;;;;3.00;1.30;;;24.80;37.00;;;;;;5031353;28;20029;-58
2023/06/04 05:55:22;;;;;;;2.22;1.73;;;24.40;37.70;;;;;;5031501;28;20036;-60
2023/06/04 05:57:51;;;;;;;2.50;1.20;;;24.10;38.20;;;;;;5031372;28;20036;-59
2023/06/04 06:00:17;;;;;;;6.07;1.20;;;23.80;38.40;;;;;;5031079;28;20045;-58
2023/06/04 06:02:45;;;;;;;0.90;0.90;;;23.60;38.30;;;;;;5031100;28;20030;-59
2023/06/04 06:05:10;;;;;;;1.05;1.05;;;23.20;38.40;;;;;;5031429;28;20025;-60
2023/06/04 06:07:36;;;;;;;0.90;0.90;;;23.00;38.40;;;;;;5031178;28;20082;-59
2023/06/04 06:10:03;;;;;;;1.10;1.00;;;22.80;38.60;;;;;;5030933;28;20506;-59
2023/06/04 06:12:29;;;;;;;1.23;1.10;;;22.60;39.10;;;;;;5030982;28;20033;-58
2023/06/04 06:14:55;;;;;;;0.90;0.90;;;22.40;39.40;;;;;;5031281;28;20143;-60
2023/06/04 06:17:20;;;;;;;1.38;0.90;;;22.20;39.50;;;;;;5033815;28;20075;-59
2023/06/04 06:19:46;;;;;;;1.23;1.10;;;22.10;39.60;;;;;;5034849;28;20134;-59
2023/06/04 06:22:12;;;;;;;1.40;1.30;;;21.90;39.90;;;;;;5035077;28;20107;-59
2023/06/04 06:24:39;;;;;;;0.90;0.90;;;21.80;40.20;;;;;;5035281;28;20022;-60
2023/06/04 06:27:05;;;;;;;2.22;1.08;;;21.80;40.30;;;;;;5035303;28;20101;-58
2023/06/04 06:29:30;;;;;;;1.17;1.05;;;21.70;40.40;;;;;;5034997;28;20515;-59
2023/06/04 06:31:56;;;;;;;1.55;0.90;;;21.60;40.60;;;;;;5034417;28;20846;-59
2023/06/04 06:34:23;;;;;;;1.17;1.08;;;21.50;40.50;;;;;;5034352;28;20079;-59
2023/06/04 06:36:49;;;;;;;2.30;1.02;;;21.50;41.10;;;;;;5034754;28;20030;-57
2023/06/04 06:39:15;;;;;;;2.45;1.17;;;21.40;41.20;;;;;;5035105;28;20053;-58
2023/06/04 06:41:42;;;;;;;1.60;1.15;;;21.40;41.30;;;;;;5034560;28;20025;-57
2023/06/04 06:44:07;;;;;;;3.38;1.08;;;21.30;41.60;;;;;;5034609;28;20538;-58
2023/06/04 06:46:33;;;;;;;1.92;1.20;;;21.30;41.80;;;;;;5034712;28;20026;-58
2023/06/04 06:48:59;;;;;;;2.95;1.08;;;21.30;42.00;;;;;;5034903;28;20025;-59
2023/06/04 06:51:25;;;;;;;1.05;0.95;;;21.20;41.60;;;;;;5034489;28;20037;-59
2023/06/04 06:53:51;;;;;;;2.30;1.30;;;21.20;41.40;;;;;;5034839;28;20022;-59
2023/06/04 06:56:18;;;;;;;1.17;1.05;;;21.20;41.40;;;;;;5034606;28;20108;-58
2023/06/04 06:58:44;;;;;;;1.75;1.42;;;21.10;41.40;;;;;;5034025;28;20354;-59
2023/06/04 07:01:10;;;;;;;1.90;1.10;;;21.10;41.40;;;;;;5033770;28;20068;-59
2023/06/04 07:03:35;;;;;;;1.00;1.00;;;21.00;41.50;;;;;;5034473;28;20022;-58
2023/06/04 07:06:01;;;;;;;3.05;1.17;;;21.00;41.80;;;;;;5034498;28;20021;-59
2023/06/04 07:08:28;;;;;;;1.88;0.90;;;21.00;41.50;;;;;;5034174;28;20061;-59
2023/06/04 07:10:53;;;;;;;3.85;1.10;;;21.00;41.30;;;;;;5034329;28;20473;-59
2023/06/04 07:13:19;;;;;;;1.95;1.40;;;20.90;41.60;;;;;;5033940;28;20105;-58
2023/06/04 07:15:45;;;;;;;1.77;1.27;;;20.80;41.50;;;;;;5034109;28;20033;-59
2023/06/04 07:18:11;;;;;;;3.00;1.30;;;20.80;41.30;;;;;;5033978;28;20033;-58
2023/06/04 07:20:36;;;;;;;4.00;1.52;;;20.70;41.70;;;;;;5034100;28;20033;-58
2023/06/04 07:23:02;;;;;;;1.27;1.15;;;20.70;41.80;;;;;;5033978;28;20060;-59
2023/06/04 07:25:27;;;;;;;1.13;1.02;;;20.70;41.50;;;;;;5033833;28;20484;-58
2023/06/04 07:27:57;;;;;;;1.17;1.00;;;20.70;41.30;;;;;;5033759;28;20079;-59
2023/06/04 07:30:26;;;;;;;1.60;1.15;;;20.70;41.40;;;;;;5033588;28;20029;-59
2023/06/04 07:32:52;;;;;;;1.20;1.10;;;20.60;41.70;;;;;;5033708;28;20029;-58
2023/06/04 07:35:18;;;;;;;2.08;1.10;;;20.60;42.00;;;;;;5033952;28;20032;-59
2023/06/04 07:37:48;;;;;;;0.98;0.98;;;20.60;42.20;;;;;;5033910;28;20029;-59
2023/06/04 07:40:14;;;;;;;0.90;0.82;;;20.50;41.90;;;;;;5033898;28;20393;-59
2023/06/04 07:42:42;;;;;;;1.85;1.38;;;20.50;41.90;;;;;;5033470;28;20041;-59
2023/06/04 07:45:08;;;;;;;1.73;1.00;;;20.50;41.70;;;;;;5033845;28;20033;-59
2023/06/04 07:47:35;;;;;;;1.20;1.10;;;20.50;41.30;;;;;;5033411;28;20022;-58
2023/06/04 07:50:02;;;;;;;2.80;0.98;;;20.50;41.80;;;;;;5033685;28;20041;-59
2023/06/04 07:52:27;;;;;;;3.65;1.27;;;20.60;41.50;;;;;;5033738;28;20488;-58
2023/06/04 07:54:53;;;;;;;1.13;1.08;;;20.60;41.30;;;;;;5033358;28;20105;-59
2023/06/04 07:57:18;;;;;;;1.85;1.00;;;20.60;41.70;;;;;;5033388;28;20167;-59
2023/06/04 07:59:44;;;;;;;1.10;0.90;;;20.50;41.60;;;;;;5033397;28;20116;-59
2023/06/04 08:02:10;;;;;;;1.20;1.10;;;20.50;41.60;;;;;;5032633;28;20037;-58
2023/06/04 08:04:35;;;;;;;1.25;1.17;;;20.50;41.90;;;;;;5024823;28;20033;-54
2023/06/04 08:07:01;;;;;;;1.00;0.90;;;20.40;42.00;;;;;;5026470;28;20029;-56
2023/06/04 08:09:27;;;;;;;0.98;0.88;;;20.40;42.00;;;;;;5024830;28;20029;-58
2023/06/04 08:11:52;;;;;;;1.73;0.98;;;20.40;42.30;;;;;;5025263;28;20034;-58
2023/06/04 08:14:19;;;;;;;1.10;1.00;;;20.40;41.40;;;;;;5025192;28;20064;-59
2023/06/04 08:16:45;;;;;;;1.95;0.90;;;20.40;41.30;;;;;;5022579;28;20037;-59
2023/06/04 08:19:11;;;;;;;1.92;1.08;;;20.30;41.40;;;;;;5020407;28;20040;-58
2023/06/04 08:21:37;;;;;;;3.17;1.95;;;20.30;41.40;;;;;;5024658;28;20035;-57
2023/06/04 08:24:03;;;;;;;0.90;0.90;;;20.30;41.70;;;;;;5024024;28;20025;-55
2023/06/04 08:26:28;;;;;;;1.60;0.85;;;20.40;41.80;;;;;;5020346;28;20043;-56
2023/06/04 08:28:55;;;;;;;0.73;0.73;;;20.30;41.80;;;;;;5022773;28;20025;-58
2023/06/04 08:31:21;;;;;;;1.30;1.20;;;20.30;41.80;;;;;;5024007;28;20044;-58
2023/06/04 08:33:47;;;;;;;1.02;0.93;;;20.30;42.00;;;;;;5019244;28;20113;-59
2023/06/04 08:36:13;;;;;;;1.00;1.00;;;20.30;42.30;;;;;;5025853;28;20029;-58
2023/06/04 08:38:39;;;;;;;1.10;1.00;;;20.30;41.90;;;;;;5026718;28;20030;-59
2023/06/04 08:41:19;;;;;;;1.50;1.17;;;20.20;41.90;;;;;;5025039;28;20040;-58
2023/06/04 08:43:45;;;;;;;3.33;1.45;;;20.20;41.70;;;;;;5026459;28;20049;-57
2023/06/04 08:46:12;;;;;;;0.93;0.93;;;20.20;42.10;;;;;;5022530;28;20037;-58
2023/06/04 08:48:38;;;;;;;1.55;1.20;;;20.20;42.10;;;;;;5016459;28;20026;-59
2023/06/04 08:51:09;;;;;;;1.88;0.93;;;20.10;41.90;;;;;;5028083;28;20068;-58
2023/06/04 08:53:36;;;;;;;1.27;0.77;;;20.10;41.70;;;;;;5029440;28;20609;-58
2023/06/04 08:56:03;;;;;;;1.98;0.82;;;20.10;41.40;;;;;;5029349;28;20463;-58
2023/06/04 08:58:33;;;;;;;1.80;1.20;;;20.00;41.20;;;;;;5028171;28;20048;-56
2023/06/04 09:01:00;;;;;;;1.42;1.30;;;20.00;42.10;;;;;;5028889;28;20512;-58
2023/06/04 09:03:26;;;;;;;2.70;1.20;;;19.90;42.20;;;;;;5029525;28;20029;-56
2023/06/04 09:05:53;;;;;;;2.45;1.23;;;19.90;42.10;;;;;;5029060;28;20112;-56
2023/06/04 09:08:21;;;;;;;2.08;1.20;;;19.90;42.20;;;;;;5030343;28;20083;-58
2023/06/04 09:10:51;;;;;;;1.67;1.13;;;19.90;42.40;;;;;;5032053;28;20053;-57
2023/06/04 09:13:18;;;;;;;1.25;0.90;;;19.80;42.30;;;;;;5030606;28;20407;-58
2023/06/04 09:15:44;;;;;;;0.90;0.82;;;19.80;42.10;;;;;;5031241;28;20116;-59
2023/06/04 09:18:12;;;;;;;1.45;1.00;;;19.90;41.90;;;;;;5032044;28;20053;-58
2023/06/04 09:20:37;;;;;;;0.95;0.95;;;19.80;42.30;;;;;;5032126;28;20559;-59
2023/06/04 09:23:13;;;;;;;1.08;0.77;;;19.70;41.60;;;;;;5031084;28;20079;-57
2023/06/04 09:25:43;;;;;;;0.90;0.90;;;19.70;41.50;;;;;;5030327;28;20428;-56
2023/06/04 09:28:09;;;;;;;1.98;1.08;;;19.60;41.20;;;;;;5031402;28;20029;-56
2023/06/04 09:30:35;;;;;;;1.92;0.95;;;19.70;41.60;;;;;;5029878;28;20040;-58
2023/06/04 09:33:12;;;;;;;0.80;0.80;;;19.60;41.90;;;;;;5030079;28;20021;-56
2023/06/04 09:35:37;;;;;;;1.20;0.88;;;19.70;42.10;;;;;;5028949;28;20083;-58
2023/06/04 09:38:05;;;;;;;0.85;0.80;;;19.60;41.90;;;;;;5028972;28;20025;-58
2023/06/04 09:40:37;;;;;;;1.65;0.95;;;19.60;41.90;;;;;;5027771;28;20052;-55
2023/06/04 09:43:03;;;;;;;1.20;1.10;;;19.60;41.70;;;;;;5027863;28;20022;-59
2023/06/04 09:45:32;;;;;;;1.20;1.10;;;19.60;41.60;;;;;;5028471;28;20033;-58
2023/06/04 09:47:59;;;;;;;1.20;1.00;;;19.60;41.70;;;;;;5029738;28;20049;-57
2023/06/04 09:50:30;;;;;;;0.88;0.88;;;19.60;41.70;;;;;;5029527;28;20026;-58
2023/06/04 09:52:56;;;;;;;0.80;0.80;;;19.60;41.90;;;;;;5028151;28;20021;-59
2023/06/04 09:55:23;;;;;;;0.95;0.93;;;19.60;41.60;;;;;;5030862;28;20033;-56
2023/06/04 09:57:51;;;;;;;1.02;1.00;;;19.60;41.10;;;;;;5031537;28;20106;-57
2023/06/04 10:00:22;;;;;;;1.30;1.20;;;19.60;41.00;;;;;;5030265;28;20524;-58
2023/06/04 10:02:55;;;;;;;0.88;0.88;;;19.60;41.10;;;;;;5030762;28;20050;-56
2023/06/04 10:05:22;;;;;;;1.95;1.10;;;19.60;41.10;;;;;;5027747;28;20496;-56
2023/06/04 10:07:51;;;;;;;1.20;1.20;;;19.60;41.60;;;;;;5029703;28;20025;-59
2023/06/04 10:10:24;;;;;;;0.85;0.85;;;19.50;41.50;;;;;;5030184;28;20400;-57
2023/06/04 10:13:02;;;;;;;1.48;1.38;;;19.50;41.20;;;;;;5030852;28;20080;-57
2023/06/04 10:15:28;;;;;;;0.98;0.98;;;19.50;41.40;;;;;;5029581;28;20049;-58
2023/06/04 10:17:55;;;;;;;1.15;1.00;;;19.50;41.20;;;;;;5029053;28;20025;-56
2023/06/04 10:20:22;;;;;;;1.63;0.82;;;19.40;41.10;;;;;;5028803;28;20045;-56
2023/06/04 10:22:49;;;;;;;1.15;0.90;;;19.40;41.30;;;;;;5028922;28;20053;-59
2023/06/04 10:25:16;;;;;;;1.63;1.40;;;19.40;41.30;;;;;;5029082;28;20025;-58
2023/06/04 10:27:41;;;;;;;0.95;0.95;;;19.40;41.40;;;;;;5029179;28;20429;-57
2023/06/04 10:30:08;;;;;;;1.02;0.93;;;19.40;41.50;;;;;;5027232;28;20060;-59
2023/06/04 10:32:34;;;;;;;0.80;0.80;;;19.40;41.70;;;;;;5030587;28;20013;-58
2023/06/04 10:35:06;;;;;;;0.80;0.80;;;19.40;41.90;;;;;;5030519;28;20105;-59
2023/06/04 10:37:32;;;;;;;1.55;0.80;;;19.50;41.90;;;;;;5030245;28;20028;-57
2023/06/04 10:39:58;;;;;;;5.72;4.40;;;19.50;41.70;;;;;;5030661;28;20025;-58
2023/06/04 10:42:25;;;;;;;2.90;2.20;;;19.50;41.70;;;;;;5029370;28;20075;-57
2023/06/04 10:44:54;;;;;;;1.55;1.45;;;19.50;41.70;;;;;;5030851;28;20021;-57
2023/06/04 10:47:23;;;;;;;2.05;1.38;;;19.50;41.90;;;;;;5030882;28;20423;-58
2023/06/04 10:49:53;;;;;;;1.83;1.50;;;19.50;42.00;;;;;;5029924;28;20032;-59
2023/06/04 10:52:20;;;;;;;2.35;1.33;;;19.50;42.30;;;;;;5028993;28;20416;-57
2023/06/04 10:54:53;;;;;;;2.65;1.20;;;19.50;43.10;;;;;;5028648;28;20037;-57
2023/06/04 10:57:19;;;;;;;2.22;1.90;;;19.50;42.30;;;;;;5030366;28;20424;-59
2023/06/04 10:59:58;;;;;;;1.13;1.10;;;19.50;42.10;;;;;;5030045;28;20053;-58
2023/06/04 11:02:24;;;;;;;1.67;1.00;;;19.60;41.80;;;;;;5029729;28;20524;-55
2023/06/04 11:05:09;;;;;;;3.50;1.35;;;19.50;41.50;;;;;;5033324;28;20384;-59
2023/06/04 11:07:43;;;;;;;1.67;1.52;;;19.60;41.60;;;;;;5032403;28;20062;-57
2023/06/04 11:10:10;;;;;;;1.25;1.15;;;19.50;41.70;;;;;;5032115;28;20473;-57
2023/06/04 11:12:52;;;;;;;1.33;1.20;;;19.60;41.60;;;;;;5032152;28;20036;-57
2023/06/04 11:15:18;;;;;;;1.88;0.80;;;19.60;41.50;;;;;;5032281;28;20216;-53
2023/06/04 11:17:55;;;;;;;1.80;1.50;;;19.60;42.10;;;;;;5032563;28;20021;-58
2023/06/04 11:20:22;;;;;;;2.13;1.67;;;19.60;41.90;;;;;;5031990;28;20021;-59
2023/06/04 11:22:52;;;;;;;1.33;1.05;;;19.60;42.10;;;;;;5033586;28;20033;-59
2023/06/04 11:25:18;;;;;;;1.20;1.10;;;19.60;41.90;;;;;;5033915;28;20049;-58
2023/06/04 11:27:43;;;;;;;1.65;1.40;;;19.60;42.00;;;;;;5033766;28;20053;-59
2023/06/04 11:30:11;;;;;;;1.27;1.10;;;19.60;42.00;;;;;;5033325;28;20028;-57
2023/06/04 11:32:37;;;;;;;2.25;1.10;;;19.60;42.00;;;;;;5032530;28;20037;-58
2023/06/04 11:35:07;;;;;;;1.70;1.50;;;19.60;41.90;;;;;;5032279;28;20033;-57
2023/06/04 11:37:33;;;;;;;1.08;0.80;;;19.60;41.90;;;;;;5032281;28;20029;-59
2023/06/04 11:40:00;;;;;;;2.53;1.48;;;19.60;41.90;;;;;;5032549;28;20031;-58
2023/06/04 11:42:27;;;;;;;1.50;1.40;;;19.60;41.90;;;;;;5033404;28;20429;-58
2023/06/04 11:44:59;;;;;;;1.98;1.02;;;19.60;41.80;;;;;;5033268;28;20488;-57
2023/06/04 11:47:25;;;;;;;3.70;2.15;;;19.60;42.00;;;;;;5033224;28;20128;-56
2023/06/04 11:49:58;;;;;;;2.78;1.80;;;19.60;42.00;;;;;;5033145;28;20049;-58
2023/06/04 11:52:23;;;;;;;1.50;1.40;;;19.60;41.90;;;;;;5033204;28;20437;-58
2023/06/04 11:54:49;;;;;;;1.30;1.20;;;19.60;42.00;;;;;;5032199;28;20057;-58
2023/06/04 11:57:15;;;;;;;1.30;1.20;;;19.60;42.30;;;;;;5031151;28;20021;-58
2023/06/04 11:59:41;;;;;;;1.20;1.10;;;19.60;42.30;;;;;;5031413;28;20045;-59
2023/06/04 12:02:07;;;;;;;1.40;1.30;;;19.70;42.30;;;;;;5031176;28;20055;-57
2023/06/04 12:04:33;;;;;;;1.05;0.90;;;19.70;42.10;;;;;;5031333;28;20365;-56
2023/06/04 12:07:01;;;;;;;0.90;0.90;;;19.70;42.00;;;;;;5031127;28;20124;-54
2023/06/04 12:09:32;;;;;;;1.13;1.10;;;19.70;42.20;;;;;;5032258;28;20037;-59
2023/06/04 12:12:06;;;;;;;1.40;1.17;;;19.70;42.20;;;;;;5033349;28;20033;-58
2023/06/04 12:14:33;;;;;;;1.23;1.13;;;19.70;42.20;;;;;;5033062;28;20041;-59
2023/06/04 12:17:00;;;;;;;1.50;1.10;;;19.70;42.30;;;;;;5033136;28;20033;-59
2023/06/04 12:19:27;;;;;;;1.20;0.80;;;19.70;42.30;;;;;;5032879;28;20163;-59
2023/06/04 12:22:04;;;;;;;0.80;0.80;;;19.70;42.40;;;;;;5032957;28;20057;-58
2023/06/04 12:24:32;;;;;;;0.95;0.93;;;19.80;42.60;;;;;;5033374;28;20018;-59
2023/06/04 12:27:09;;;;;;;2.40;1.38;;;19.80;42.50;;;;;;5032715;28;20018;-60
2023/06/04 12:29:35;;;;;;;3.15;2.05;;;19.80;42.70;;;;;;5032753;28;20032;-56
2023/06/04 12:32:08;;;;;;;3.65;2.10;;;19.80;42.60;;;;;;5032902;28;20070;-59
2023/06/04 12:34:36;;;;;;;1.58;1.48;;;19.80;42.60;;;;;;5032663;28;20034;-58
2023/06/04 12:37:06;;;;;;;5.53;3.50;;;19.80;42.60;;;;;;5032724;28;20564;-59
2023/06/04 12:39:33;;;;;;;2.80;1.90;;;19.80;42.70;;;;;;5033001;28;20083;-57
2023/06/04 12:41:58;;;;;;;1.88;1.58;;;19.80;43.10;;;;;;5032761;28;20040;-58
2023/06/04 12:44:24;;;;;;;1.27;1.17;;;19.80;43.20;;;;;;5032425;28;20021;-58
2023/06/04 12:46:50;;;;;;;2.35;1.00;;;19.70;43.10;;;;;;5032597;28;20481;-58
2023/06/04 12:49:16;;;;;;;1.15;1.15;;;19.80;43.00;;;;;;5032302;28;20029;-54